Bookmark and Share
Track history (hours):
 

Cochise

More information available from US FCC via Universal Licensing System and Coast Guard Vessel Documentation Center.

Last reported at 2014-Apr-14 09:33 UTC. Time now 2014-Apr-17 00:56 UTC.
Position N 38°35' W 124°04'.

Length 32 m; draft 4.8 m.

Type: Tow > 200 m length. MMSI: 367304990.

NotesDate/timePositionNaut miles runAvg speedWind from/ knotsBaromVisibWave heightAir tempDewpointWater temp
2014-Apr-14 09:33N 38°35' W 124°04'23 7.7
2014-Apr-14 06:33N 38°17' W 123°45'8 8.3
2014-Apr-14 05:33N 38°14' W 123°35'58 8.3
2014-Apr-13 22:33N 37°55' W 122°25'0 0.3
2014-Apr-13 21:33N 37°55' W 122°25'0 0.0
2014-Apr-13 20:33N 37°55' W 122°25'0 0.0
2014-Apr-13 19:33N 37°55' W 122°25'0 0.0
2014-Apr-13 18:34N 37°55' W 122°25'0 0.0
2014-Apr-13 17:28N 37°55' W 122°25'0 0.0
2014-Apr-13 16:31N 37°55' W 122°25'0 0.0
2014-Apr-13 15:24N 37°55' W 122°25'0 0.0
2014-Apr-13 14:13N 37°55' W 122°25'0 0.0
2014-Apr-13 13:24N 37°55' W 122°25'0 0.0
2014-Apr-13 12:30N 37°55' W 122°25'0 0.0
2014-Apr-13 11:33N 37°55' W 122°25'0 0.0
2014-Apr-13 10:30N 37°55' W 122°25'0 0.0
2014-Apr-13 09:18N 37°55' W 122°25'0 0.1
2014-Apr-13 08:33N 37°55' W 122°25'1 1.2
2014-Apr-13 07:33N 37°55' W 122°26'1 0.5
2014-Apr-13 06:33N 37°55' W 122°26'8 8.0
2014-Apr-13 05:33N 37°48' W 122°31'1111.0
2014-Apr-13 04:31N 37°42' W 122°44'1010.3
2014-Apr-13 03:33N 37°37' W 122°54'10 9.6
2014-Apr-13 02:33N 37°30' W 123°03'9 9.2
2014-Apr-13 01:33N 37°21' W 123°01'10 9.4
2014-Apr-13 00:30N 37°12' W 122°56'9 9.7
2014-Apr-12 23:32N 37°03' W 122°52'10 9.6
2014-Apr-12 22:32N 36°54' W 122°47'9 9.6
2014-Apr-12 21:33N 36°45' W 122°42'10 9.7
2014-Apr-12 20:33N 36°36' W 122°37'10 9.5
2014-Apr-12 19:33N 36°28' W 122°32'13 9.4
2014-Apr-12 18:08N 36°16' W 122°25'5 9.3
2014-Apr-12 17:33N 36°11' W 122°23'10 9.6
2014-Apr-12 16:33N 36°03' W 122°17'10 9.8
2014-Apr-12 15:32N 35°54' W 122°10'12 9.8
2014-Apr-12 14:21N 35°44' W 122°03'8 9.7
2014-Apr-12 13:32N 35°37' W 121°58'10 9.9
2014-Apr-12 12:33N 35°29' W 121°51'10 9.7
2014-Apr-12 11:33N 35°21' W 121°45'10 9.5
2014-Apr-12 10:29N 35°12' W 121°39'9 9.7
2014-Apr-12 09:33N 35°04' W 121°33'10 9.6
2014-Apr-12 08:30N 34°56' W 121°26'105 8.8
2014-Apr-11 20:33N 33°46' W 119°52'5010.0
2014-Apr-11 15:33N 33°47' W 118°52'10 9.7
2014-Apr-11 14:33N 33°50' W 118°40'10 9.9
2014-Apr-11 13:33N 33°54' W 118°29'2 2.0
2014-Apr-11 12:33N 33°55' W 118°27'0 0.0
2014-Apr-11 11:32N 33°55' W 118°27'0 0.0
2014-Apr-11 10:32N 33°55' W 118°27'0 0.0
2014-Apr-11 09:32N 33°55' W 118°27'0 0.0
2014-Apr-11 08:32N 33°55' W 118°27'0 0.0
2014-Apr-11 07:32N 33°55' W 118°27'0 0.0
2014-Apr-11 06:32N 33°55' W 118°27'0 0.0
2014-Apr-11 05:32N 33°55' W 118°27'0 0.0
2014-Apr-11 04:32N 33°55' W 118°27'0 0.0
2014-Apr-11 03:32N 33°55' W 118°27'0 0.0
2014-Apr-11 02:32N 33°55' W 118°27'0 0.0
2014-Apr-11 01:32N 33°55' W 118°27'0 0.0
2014-Apr-11 00:32N 33°55' W 118°27'0 0.0
2014-Apr-10 23:32N 33°55' W 118°27'0 0.0
2014-Apr-10 22:32N 33°55' W 118°27'0 0.0
2014-Apr-10 21:32N 33°55' W 118°27'0 0.0
2014-Apr-10 20:32N 33°55' W 118°27'0 0.0
2014-Apr-10 19:32N 33°55' W 118°27'0 0.0
2014-Apr-10 18:32N 33°55' W 118°27'0 0.0
2014-Apr-10 17:32N 33°55' W 118°27'0 0.0
2014-Apr-10 16:33N 33°55' W 118°27'0 0.4
2014-Apr-10 15:31N 33°54' W 118°28'1 0.6
2014-Apr-10 14:33N 33°54' W 118°28'5 4.3
2014-Apr-10 13:28N 33°49' W 118°30'5 5.4
2014-Apr-10 12:33N 33°50' W 118°36'6 5.7
2014-Apr-10 11:31N 33°52' W 118°43'12 9.1
2014-Apr-10 10:11N 33°51' W 118°57'10 9.4
2014-Apr-10 09:07N 33°51' W 119°09'46 9.3
2014-Apr-10 04:12N 33°44' W 120°04'6 9.2
2014-Apr-10 03:33N 33°45' W 120°11'10 9.5
2014-Apr-10 02:29N 33°49' W 120°22'10 9.4
2014-Apr-10 01:25N 33°53' W 120°33'8 9.0
2014-Apr-10 00:33N 33°57' W 120°41'9 9.0
2014-Apr-09 23:33N 34°02' W 120°50'18 9.0
2014-Apr-09 21:33N 34°15' W 121°05'9 9.1
2014-Apr-09 20:33N 34°23' W 121°10'9 9.3
2014-Apr-09 19:33N 34°31' W 121°16'9 9.3
2014-Apr-09 18:33N 34°39' W 121°21'14 9.4
2014-Apr-09 17:07N 34°51' W 121°30'6 9.2
2014-Apr-09 16:30N 34°56' W 121°33'9 9.2
2014-Apr-09 15:33N 35°03' W 121°39'9 9.4
2014-Apr-09 14:33N 35°11' W 121°45'9 9.3
2014-Apr-09 13:33N 35°19' W 121°50'9 9.2
2014-Apr-09 12:33N 35°27' W 121°56'9 9.0
2014-Apr-09 11:33N 35°35' W 122°02'9 8.9
2014-Apr-09 10:33N 35°43' W 122°07'9 9.1
2014-Apr-09 09:33N 35°51' W 122°13'9 9.2
2014-Apr-09 08:33N 35°59' W 122°18'10 9.5
2014-Apr-09 07:33N 36°07' W 122°25'10 9.6
2014-Apr-09 06:33N 36°15' W 122°30'9 9.4
2014-Apr-09 05:33N 36°24' W 122°35'9 9.3
2014-Apr-09 04:33N 36°33' W 122°39'9 9.1
2014-Apr-09 03:33N 36°41' W 122°43'9 9.1
2014-Apr-09 02:33N 36°50' W 122°47'9 9.3
2014-Apr-09 01:33N 36°58' W 122°51'10 9.5
2014-Apr-09 00:33N 37°07' W 122°56'9 9.5
2014-Apr-08 23:33N 37°16' W 123°00'10 9.8
2014-Apr-08 22:33N 37°25' W 123°04'9 9.2
2014-Apr-08 21:33N 37°34' W 123°03'9 9.2
2014-Apr-08 20:33N 37°39' W 122°53'9 9.2
2014-Apr-08 19:33N 37°44' W 122°43'1010.1
2014-Apr-08 18:33N 37°48' W 122°32'8 8.0
2014-Apr-08 17:33N 37°55' W 122°26'1 1.1
2014-Apr-08 16:33N 37°55' W 122°25'0 0.1
2014-Apr-08 15:28N 37°55' W 122°25'0 0.0
2014-Apr-08 14:28N 37°55' W 122°25'0 0.0
2014-Apr-08 13:28N 37°55' W 122°25'0 0.0
2014-Apr-08 12:28N 37°55' W 122°25'0 0.0
2014-Apr-08 11:28N 37°55' W 122°25'0 0.0
2014-Apr-08 10:31N 37°55' W 122°25'0 0.0
2014-Apr-08 09:28N 37°55' W 122°25'0 0.0
2014-Apr-08 08:19N 37°55' W 122°25'0 0.0
2014-Apr-08 07:28N 37°55' W 122°25'0 0.0
2014-Apr-08 06:28N 37°55' W 122°25'0 0.0
2014-Apr-08 05:28N 37°55' W 122°25'0 0.0
2014-Apr-08 04:28N 37°55' W 122°25'0 0.0
2014-Apr-08 03:16N 37°55' W 122°25'0 0.0
2014-Apr-08 02:28N 37°55' W 122°25'0 0.0
2014-Apr-08 01:31N 37°55' W 122°25'0 0.0
2014-Apr-08 00:28N 37°55' W 122°25'0 0.0
2014-Apr-07 23:28N 37°55' W 122°25'0 0.0
2014-Apr-07 17:28N 37°55' W 122°25'0 0.0
2014-Apr-07 16:04N 37°55' W 122°25'0 0.0
2014-Apr-07 15:28N 37°55' W 122°25'0 0.0
2014-Apr-07 14:31N 37°55' W 122°25'0 0.0
2014-Apr-07 13:31N 37°55' W 122°25'0 0.0
2014-Apr-07 12:28N 37°55' W 122°25'0 0.0
2014-Apr-07 11:31N 37°55' W 122°25'0 0.0
2014-Apr-07 10:28N 37°55' W 122°25'0 0.0
2014-Apr-07 09:22N 37°55' W 122°25'0 0.0
2014-Apr-07 08:28N 37°55' W 122°25'0 0.0
2014-Apr-07 07:28N 37°55' W 122°25'0 0.0
2014-Apr-07 06:22N 37°55' W 122°25'0 0.0
2014-Apr-07 05:28N 37°55' W 122°25'0 0.0
2014-Apr-07 04:22N 37°55' W 122°25'0 0.2
2014-Apr-07 03:33N 37°55' W 122°25'1 1.0
2014-Apr-07 02:34N 37°55' W 122°26'0 0.1
2014-Apr-07 01:32N 37°55' W 122°26'0 0.0
2014-Apr-07 00:23N 37°55' W 122°26'0 0.0
2014-Apr-06 23:32N 37°55' W 122°26'0 0.0
2014-Apr-06 22:32N 37°55' W 122°26'0 0.0
2014-Apr-06 21:32N 37°55' W 122°26'0 0.0
2014-Apr-06 20:32N 37°55' W 122°26'0 0.0
2014-Apr-06 19:32N 37°55' W 122°26'0 0.0
2014-Apr-06 18:32N 37°55' W 122°26'0 0.0
2014-Apr-06 17:32N 37°55' W 122°26'0 0.0
2014-Apr-06 16:32N 37°55' W 122°26'0 0.0
2014-Apr-06 15:32N 37°55' W 122°26'0 0.0
2014-Apr-06 14:32N 37°55' W 122°26'0 0.0
2014-Apr-06 13:32N 37°55' W 122°26'0 0.0
2014-Apr-06 12:29N 37°55' W 122°26'0 0.0
2014-Apr-06 11:29N 37°55' W 122°26'0 0.0
2014-Apr-06 10:29N 37°55' W 122°26'0 0.0
2014-Apr-06 09:29N 37°55' W 122°26'0 0.1
2014-Apr-06 08:32N 37°55' W 122°26'0 0.1
2014-Apr-06 07:32N 37°55' W 122°26'0 0.0
2014-Apr-06 06:32N 37°55' W 122°26'0 0.0
2014-Apr-06 05:32N 37°55' W 122°26'0 0.0
2014-Apr-06 04:32N 37°55' W 122°26'0 0.0
2014-Apr-06 03:32N 37°55' W 122°26'0 0.0
2014-Apr-06 02:29N 37°55' W 122°26'0 0.1
2014-Apr-06 01:32N 37°55' W 122°26'0 0.0
2014-Apr-06 00:29N 37°55' W 122°26'0 0.0
2014-Apr-05 23:32N 37°55' W 122°26'0 0.1
2014-Apr-05 22:29N 37°55' W 122°26'0 0.0
2014-Apr-05 21:29N 37°55' W 122°26'0 0.0
2014-Apr-05 20:32N 37°55' W 122°26'0 0.0
2014-Apr-05 19:32N 37°55' W 122°26'0 0.0
2014-Apr-05 18:32N 37°55' W 122°26'0 0.0
2014-Apr-05 17:32N 37°55' W 122°26'0 0.0
2014-Apr-05 16:32N 37°55' W 122°26'0 0.0
2014-Apr-05 15:32N 37°55' W 122°26'0 0.1
2014-Apr-05 14:32N 37°55' W 122°26'0 0.0
2014-Apr-05 13:32N 37°55' W 122°26'0 0.0
2014-Apr-05 12:32N 37°55' W 122°26'0 0.0
2014-Apr-05 11:29N 37°55' W 122°26'0 0.0
2014-Apr-05 10:32N 37°55' W 122°26'0 0.0
2014-Apr-05 09:32N 37°55' W 122°26'0 0.0
2014-Apr-05 08:32N 37°55' W 122°26'0 0.1
2014-Apr-05 07:32N 37°55' W 122°26'0 0.0
2014-Apr-05 06:29N 37°55' W 122°26'0 0.0
2014-Apr-05 05:32N 37°55' W 122°26'0 0.0
2014-Apr-05 04:32N 37°55' W 122°26'0 0.0
2014-Apr-05 03:32N 37°55' W 122°26'0 0.0
2014-Apr-05 02:32N 37°55' W 122°26'0 0.0
2014-Apr-05 01:32N 37°55' W 122°26'0 0.0
2014-Apr-05 00:29N 37°55' W 122°26'0 0.0
2014-Apr-04 23:32N 37°55' W 122°26'0 0.0
2014-Apr-04 22:29N 37°55' W 122°26'0 0.0
2014-Apr-04 21:14N 37°55' W 122°26'0 0.0
2014-Apr-04 20:26N 37°55' W 122°26'0 0.1
2014-Apr-04 19:32N 37°55' W 122°26'0 0.0
2014-Apr-04 18:32N 37°55' W 122°26'4 4.5
2014-Apr-04 17:33N 37°51' W 122°25'8 8.4
2014-Apr-04 16:33N 37°47' W 122°34'9 9.2
2014-Apr-04 15:33N 37°46' W 122°46'1010.0
2014-Apr-04 14:33N 37°51' W 122°57'1010.3
2014-Apr-04 13:33N 37°56' W 123°08'1010.3
2014-Apr-04 12:33N 38°03' W 123°18'1110.8
2014-Apr-04 11:33N 38°11' W 123°27'1110.8
2014-Apr-04 10:33N 38°19' W 123°36'  

Dump ship's entire track history

sailing weather and tide predictions

Cochise — WDD8952 — position and weather